Three Bridges, New Jersey
Current Conditions -  °F | °C
As of 6:53 AM on Sunday 25 Jan 2015 (Local Time) from KSMQ Reporting Station
Overcast Overcast  
Wind Chill: 30°   Ceiling: 5500
Heat Index: 34°   Visibility: 10mi
Dew Point: 26°   Wind: 5mph
Humidity: 73%   Direction: 200°SSW
Pressure: 29.66"   Gusts: NA
Location:  40.52°N, 74.8°W
Report Text: KSMQ 251153Z AUTO 20004KT 10SM SCT038 OVC055 01/M03 A2966 RMK AO2 SLP047 70020 T00111033 10022 20006 53021 TSNO $
Loading
Personal Weather Stations






























Interactive Weather Map New forecast layout! Learn more

10-Day Weather Forecast

Advertisements
Track Severe Weather on mobile